Time;durP1;ratioP1;P1;durP2;ratioP2;P2;SDS_P1;SDS_P2;PMS_P1;PMS_P2;Temp;Humidity;BMP_temperature;BMP_pressure;BME280_temperature;BME280_humidity;BME280_pressure;Samples;Min_cycle;Max_cycle;Signal;HPM_P1;HPM_P2
2022/08/03 00:01:04;;;;;;;15.38;4.38;;;;;;;;;;4997346;28;20065;-65
2022/08/03 00:03:32;;;;;;;12.38;3.92;;;;;;;;;;5023435;28;20101;-65
2022/08/03 00:05:59;;;;;;;11.25;3.75;;;;;;;;;;5017401;28;20050;-65
2022/08/03 00:08:26;;;;;;;9.13;3.78;;;;;;;;;;5021096;28;20037;-65
2022/08/03 00:10:53;;;;;;;10.30;3.90;;;;;;;;;;5023559;28;20381;-65
2022/08/03 00:13:22;;;;;;;15.77;4.13;;;;;;;;;;5022778;28;20045;-65
2022/08/03 00:15:49;;;;;;;14.23;3.75;;;;;;;;;;5015546;28;20042;-65
2022/08/03 00:18:16;;;;;;;14.88;4.25;;;;;;;;;;5017255;28;20064;-64
2022/08/03 00:20:44;;;;;;;11.18;4.38;;;;;;;;;;5018727;28;20050;-65
2022/08/03 00:23:11;;;;;;;11.80;4.30;;;;;;;;;;5023431;28;20057;-65
2022/08/03 00:25:38;;;;;;;12.60;4.00;;;;;;;;;;5021496;28;20511;-65
2022/08/03 00:28:06;;;;;;;16.52;4.45;;;;;;;;;;5017724;28;20500;-64
2022/08/03 00:30:34;;;;;;;12.25;4.15;;;;;;;;;;5020967;28;20050;-65
2022/08/03 00:33:02;;;;;;;12.02;4.28;;;;;;;;;;5019344;28;20057;-65
2022/08/03 00:35:29;;;;;;;13.00;4.20;;;;;;;;;;5013568;28;20053;-64
2022/08/03 00:37:56;;;;;;;14.45;4.80;;;;;;;;;;5006626;28;20057;-65
2022/08/03 00:40:24;;;;;;;14.02;4.75;;;;;;;;;;5023607;28;20451;-65
2022/08/03 00:42:52;;;;;;;15.75;4.57;;;;;;;;;;5008624;28;20061;-65
2022/08/03 00:45:20;;;;;;;18.48;4.13;;;;;;;;;;5015768;28;20052;-64
2022/08/03 00:47:49;;;;;;;15.48;4.47;;;;;;;;;;5023492;28;20115;-65
2022/08/03 00:50:16;;;;;;;18.73;4.25;;;;;;;;;;5025276;28;20049;-65
2022/08/03 00:52:44;;;;;;;13.35;3.90;;;;;;;;;;5019302;28;20057;-65
2022/08/03 00:55:11;;;;;;;14.00;4.38;;;;;;;;;;5005259;28;20061;-65
2022/08/03 00:57:38;;;;;;;12.77;3.97;;;;;;;;;;5024549;28;20053;-65
2022/08/03 01:00:07;;;;;;;15.30;4.60;;;;;;;;;;5022416;28;20136;-64
2022/08/03 01:02:34;;;;;;;13.80;4.07;;;;;;;;;;5018211;28;20676;-64
2022/08/03 01:05:03;;;;;;;15.77;4.45;;;;;;;;;;5001288;28;20099;-64
2022/08/03 01:07:36;;;;;;;14.00;4.55;;;;;;;;;;5019106;28;20049;-65
2022/08/03 01:10:06;;;;;;;15.43;3.97;;;;;;;;;;4995403;28;20072;-64
2022/08/03 01:12:36;;;;;;;13.25;3.95;;;;;;;;;;5020255;28;20042;-65
2022/08/03 01:15:08;;;;;;;13.40;3.80;;;;;;;;;;5019953;28;20057;-65
2022/08/03 01:17:40;;;;;;;19.80;4.88;;;;;;;;;;5012551;28;20060;-65
2022/08/03 01:20:11;;;;;;;14.73;4.40;;;;;;;;;;5004788;28;20061;-65
2022/08/03 01:22:52;;;;;;;16.42;4.10;;;;;;;;;;5024646;28;20096;-65
2022/08/03 01:25:25;;;;;;;12.55;4.28;;;;;;;;;;5017266;28;20053;-65
2022/08/03 01:27:57;;;;;;;13.48;4.50;;;;;;;;;;5020972;28;20057;-65
2022/08/03 01:30:28;;;;;;;17.02;3.80;;;;;;;;;;5020842;28;20054;-64
2022/08/03 01:32:57;;;;;;;13.35;3.67;;;;;;;;;;5021209;28;20069;-65
2022/08/03 01:35:27;;;;;;;15.90;4.00;;;;;;;;;;5017528;28;20826;-65
2022/08/03 01:37:57;;;;;;;19.48;4.50;;;;;;;;;;5014561;28;20049;-65
2022/08/03 01:40:26;;;;;;;14.27;3.95;;;;;;;;;;5020768;28;20107;-65
2022/08/03 01:42:55;;;;;;;17.30;4.00;;;;;;;;;;5014215;28;20060;-65
2022/08/03 01:45:23;;;;;;;19.48;3.65;;;;;;;;;;5006875;28;20053;-65
2022/08/03 01:47:52;;;;;;;13.43;3.83;;;;;;;;;;5018687;28;20177;-65
2022/08/03 01:50:21;;;;;;;16.50;3.70;;;;;;;;;;5025075;28;20053;-65
2022/08/03 01:52:49;;;;;;;17.02;3.97;;;;;;;;;;5021891;28;20104;-65
2022/08/03 01:55:17;;;;;;;18.05;4.07;;;;;;;;;;5019298;28;20049;-65
2022/08/03 01:57:46;;;;;;;13.13;3.88;;;;;;;;;;5014846;28;20069;-65
2022/08/03 02:00:14;;;;;;;13.32;3.70;;;;;;;;;;5024814;28;20428;-65
2022/08/03 02:02:42;;;;;;;15.10;4.28;;;;;;;;;;5000591;28;20054;-65
2022/08/03 02:05:12;;;;;;;15.52;4.15;;;;;;;;;;5003696;28;20065;-65
2022/08/03 02:07:41;;;;;;;20.85;4.05;;;;;;;;;;4996111;28;20393;-65
2022/08/03 02:10:10;;;;;;;12.13;4.18;;;;;;;;;;5024689;28;20433;-65
2022/08/03 02:12:37;;;;;;;15.45;3.65;;;;;;;;;;5026260;28;20068;-65
2022/08/03 02:15:06;;;;;;;18.33;4.07;;;;;;;;;;5007861;28;20516;-65
2022/08/03 02:17:34;;;;;;;15.43;3.80;;;;;;;;;;5007210;28;20076;-64
2022/08/03 02:20:02;;;;;;;13.80;3.60;;;;;;;;;;5016689;28;20081;-65
2022/08/03 02:22:31;;;;;;;16.23;4.00;;;;;;;;;;5021832;28;20393;-65
2022/08/03 02:24:58;;;;;;;15.60;4.55;;;;;;;;;;5020474;28;20053;-65
2022/08/03 02:27:27;;;;;;;20.65;4.15;;;;;;;;;;5025063;28;20049;-65
2022/08/03 02:29:56;;;;;;;12.48;4.00;;;;;;;;;;5027082;28;20049;-65
2022/08/03 02:32:25;;;;;;;16.80;4.00;;;;;;;;;;5024702;28;20056;-65
2022/08/03 02:34:55;;;;;;;13.90;3.45;;;;;;;;;;5020297;28;20061;-65
2022/08/03 02:37:26;;;;;;;12.30;3.95;;;;;;;;;;5021637;28;20046;-65
2022/08/03 02:39:55;;;;;;;16.60;4.40;;;;;;;;;;5022712;28;20053;-65
2022/08/03 02:42:23;;;;;;;20.17;3.83;;;;;;;;;;5022840;28;20054;-65
2022/08/03 02:44:51;;;;;;;22.05;4.50;;;;;;;;;;5023532;28;20049;-65
2022/08/03 02:47:20;;;;;;;12.52;4.07;;;;;;;;;;5023498;28;20061;-65
2022/08/03 02:49:49;;;;;;;14.77;4.05;;;;;;;;;;4997785;28;20041;-65
2022/08/03 02:52:16;;;;;;;17.38;3.70;;;;;;;;;;5020192;28;20045;-65
2022/08/03 02:54:45;;;;;;;12.20;4.13;;;;;;;;;;5018579;28;20065;-65
2022/08/03 02:57:14;;;;;;;16.50;4.30;;;;;;;;;;5024903;28;20848;-65
2022/08/03 02:59:43;;;;;;;15.13;4.13;;;;;;;;;;5024833;28;20060;-65
2022/08/03 03:02:10;;;;;;;13.23;3.90;;;;;;;;;;5022026;28;20045;-65
2022/08/03 03:04:38;;;;;;;20.38;3.85;;;;;;;;;;5024241;28;20455;-65
2022/08/03 03:07:05;;;;;;;14.00;4.00;;;;;;;;;;5020706;28;20054;-65
2022/08/03 03:09:33;;;;;;;15.75;3.85;;;;;;;;;;5022471;28;20834;-65
2022/08/03 03:12:01;;;;;;;17.30;4.05;;;;;;;;;;5022977;28;20053;-65
2022/08/03 03:14:29;;;;;;;14.05;4.45;;;;;;;;;;5026032;28;20045;-65
2022/08/03 03:16:57;;;;;;;17.48;4.43;;;;;;;;;;5027194;28;20469;-65
2022/08/03 03:19:25;;;;;;;20.40;3.83;;;;;;;;;;5019722;28;20099;-65
2022/08/03 03:21:52;;;;;;;17.33;4.05;;;;;;;;;;5025883;28;20064;-65
2022/08/03 03:24:20;;;;;;;19.42;4.07;;;;;;;;;;5021165;28;20060;-65
2022/08/03 03:26:48;;;;;;;22.27;4.40;;;;;;;;;;5020968;28;20054;-65
2022/08/03 03:29:16;;;;;;;20.63;4.18;;;;;;;;;;5028600;28;20185;-65
2022/08/03 03:31:44;;;;;;;21.38;4.88;;;;;;;;;;5003120;28;20042;-65
2022/08/03 03:34:12;;;;;;;17.15;4.25;;;;;;;;;;5023849;28;20049;-64
2022/08/03 03:36:39;;;;;;;17.65;4.40;;;;;;;;;;5004750;28;20053;-65
2022/08/03 03:39:06;;;;;;;16.70;4.05;;;;;;;;;;5025767;28;20053;-65
2022/08/03 03:41:33;;;;;;;19.73;4.32;;;;;;;;;;5023728;28;20503;-65
2022/08/03 03:44:01;;;;;;;15.65;4.22;;;;;;;;;;5023451;28;20060;-65
2022/08/03 03:46:28;;;;;;;18.17;4.18;;;;;;;;;;5020944;28;20112;-65
2022/08/03 03:48:56;;;;;;;21.42;4.90;;;;;;;;;;5021728;28;20060;-65
2022/08/03 03:51:24;;;;;;;21.27;4.20;;;;;;;;;;5024303;28;20099;-65
2022/08/03 03:53:57;;;;;;;16.33;3.58;;;;;;;;;;5023795;28;20045;-65
2022/08/03 03:56:25;;;;;;;20.45;4.53;;;;;;;;;;4999213;28;20054;-66
2022/08/03 03:58:52;;;;;;;22.40;4.13;;;;;;;;;;5006625;28;20062;-65
2022/08/03 04:01:20;;;;;;;17.30;4.40;;;;;;;;;;4996793;28;20132;-65
2022/08/03 04:03:47;;;;;;;15.50;3.95;;;;;;;;;;4986941;28;20152;-65
2022/08/03 04:11:47;;;;;;;18.70;4.18;;;;;;;;;;5006474;28;20196;-64
2022/08/03 04:14:17;;;;;;;17.33;4.50;;;;;;;;;;4980454;28;20054;-65
2022/08/03 04:16:46;;;;;;;15.27;4.00;;;;;;;;;;5001649;28;20050;-65
2022/08/03 04:19:16;;;;;;;19.38;4.18;;;;;;;;;;5002624;28;20137;-65
2022/08/03 04:21:48;;;;;;;16.35;3.80;;;;;;;;;;5005599;28;20050;-65
2022/08/03 04:24:16;;;;;;;14.57;4.43;;;;;;;;;;4999861;28;20074;-65
2022/08/03 04:26:44;;;;;;;16.30;3.92;;;;;;;;;;5003060;28;20368;-65
2022/08/03 04:29:12;;;;;;;17.08;4.10;;;;;;;;;;5000488;28;20047;-64
2022/08/03 04:31:40;;;;;;;20.42;4.50;;;;;;;;;;4997635;28;20137;-65
2022/08/03 04:34:08;;;;;;;16.27;4.18;;;;;;;;;;5004444;28;20485;-65
2022/08/03 04:36:50;;;;;;;15.32;4.32;;;;;;;;;;4996495;28;20065;-65
2022/08/03 04:39:20;;;;;;;17.42;4.35;;;;;;;;;;4993854;28;20054;-64
2022/08/03 04:41:49;;;;;;;15.65;4.07;;;;;;;;;;4988884;28;20054;-64
2022/08/03 04:44:16;;;;;;;16.67;4.82;;;;;;;;;;5002626;28;20061;-65
2022/08/03 04:46:44;;;;;;;23.92;5.28;;;;;;;;;;4994169;28;20058;-65
2022/08/03 04:49:12;;;;;;;19.48;4.63;;;;;;;;;;4999872;28;20515;-64
2022/08/03 04:51:41;;;;;;;21.13;4.45;;;;;;;;;;5004460;28;20074;-65
2022/08/03 04:54:12;;;;;;;16.33;4.28;;;;;;;;;;5004413;28;20046;-65
2022/08/03 04:56:41;;;;;;;12.82;4.00;;;;;;;;;;5019595;28;20045;-64
2022/08/03 04:59:09;;;;;;;18.15;4.22;;;;;;;;;;5018529;28;20116;-65
2022/08/03 05:01:36;;;;;;;19.40;3.88;;;;;;;;;;5019903;28;20056;-65
2022/08/03 05:04:04;;;;;;;21.63;4.22;;;;;;;;;;5026199;28;20061;-64
2022/08/03 05:06:31;;;;;;;19.17;3.85;;;;;;;;;;5019006;28;20077;-64
2022/08/03 05:08:58;;;;;;;13.82;3.70;;;;;;;;;;5023054;28;20412;-65
2022/08/03 05:11:25;;;;;;;16.38;4.05;;;;;;;;;;5022135;28;20041;-65
2022/08/03 05:13:54;;;;;;;18.35;4.43;;;;;;;;;;5024494;28;20057;-65
2022/08/03 05:16:21;;;;;;;20.70;4.10;;;;;;;;;;5007284;28;20049;-65
2022/08/03 05:18:48;;;;;;;19.98;4.15;;;;;;;;;;5019970;28;21244;-65
2022/08/03 05:21:16;;;;;;;26.27;4.28;;;;;;;;;;5024488;28;20049;-65
2022/08/03 05:23:43;;;;;;;17.02;4.28;;;;;;;;;;5022935;28;20148;-65
2022/08/03 05:26:11;;;;;;;19.77;4.65;;;;;;;;;;5024400;28;20115;-65
2022/08/03 05:28:38;;;;;;;19.98;4.05;;;;;;;;;;5022487;28;20672;-64
2022/08/03 05:31:07;;;;;;;20.80;4.85;;;;;;;;;;5017065;28;20105;-64
2022/08/03 05:33:34;;;;;;;21.38;4.40;;;;;;;;;;5005684;28;20057;-65
2022/08/03 05:36:01;;;;;;;21.45;4.20;;;;;;;;;;5014295;28;20057;-65
2022/08/03 05:38:29;;;;;;;18.33;4.30;;;;;;;;;;5017529;28;20061;-65
2022/08/03 05:40:56;;;;;;;24.23;4.85;;;;;;;;;;5017283;28;20051;-65
2022/08/03 05:43:23;;;;;;;23.08;4.72;;;;;;;;;;5018973;28;20065;-65
2022/08/03 05:45:51;;;;;;;20.02;4.63;;;;;;;;;;5020599;28;20108;-65
2022/08/03 05:48:19;;;;;;;20.85;4.47;;;;;;;;;;5020394;28;20587;-64
2022/08/03 05:50:46;;;;;;;14.18;4.50;;;;;;;;;;5001173;28;20120;-65
2022/08/03 05:53:14;;;;;;;17.90;4.22;;;;;;;;;;5020894;28;20049;-65
2022/08/03 05:55:41;;;;;;;19.77;4.38;;;;;;;;;;5021482;28;20053;-65
2022/08/03 05:58:08;;;;;;;30.88;5.38;;;;;;;;;;5018033;28;20108;-64
2022/08/03 06:00:35;;;;;;;27.15;4.78;;;;;;;;;;5013511;28;20096;-65
2022/08/03 06:03:03;;;;;;;19.60;4.47;;;;;;;;;;5021274;28;20061;-65
2022/08/03 06:05:35;;;;;;;16.15;4.43;;;;;;;;;;5022549;28;20045;-65
2022/08/03 06:08:02;;;;;;;20.55;4.45;;;;;;;;;;5020878;28;20049;-65
2022/08/03 06:10:29;;;;;;;25.35;4.57;;;;;;;;;;5020911;28;20050;-64
2022/08/03 06:12:56;;;;;;;23.00;4.75;;;;;;;;;;5025348;28;20115;-65
2022/08/03 06:15:24;;;;;;;26.02;4.57;;;;;;;;;;5003182;28;20037;-64
2022/08/03 06:17:52;;;;;;;20.23;4.78;;;;;;;;;;5021389;28;20100;-65
2022/08/03 06:20:20;;;;;;;18.73;4.65;;;;;;;;;;5022804;28;20058;-65
2022/08/03 06:22:49;;;;;;;26.80;4.80;;;;;;;;;;5020263;28;20080;-65
2022/08/03 06:25:16;;;;;;;25.23;4.70;;;;;;;;;;5018365;28;20109;-65
2022/08/03 06:27:44;;;;;;;20.55;4.30;;;;;;;;;;5022059;28;20128;-65
2022/08/03 06:30:12;;;;;;;18.48;4.45;;;;;;;;;;5010027;28;20050;-64
2022/08/03 06:32:40;;;;;;;24.15;4.78;;;;;;;;;;5022559;28;20045;-65
2022/08/03 06:35:08;;;;;;;21.77;4.80;;;;;;;;;;5017861;28;20049;-65
2022/08/03 06:37:43;;;;;;;22.65;4.82;;;;;;;;;;5020728;28;20053;-65
2022/08/03 06:40:12;;;;;;;23.83;5.32;;;;;;;;;;5006454;28;20057;-65
2022/08/03 06:42:39;;;;;;;23.85;4.60;;;;;;;;;;4996120;28;20103;-64
2022/08/03 06:45:08;;;;;;;19.55;4.70;;;;;;;;;;5019426;28;20053;-64
2022/08/03 06:47:35;;;;;;;25.88;5.18;;;;;;;;;;5001646;28;20085;-64
2022/08/03 06:50:03;;;;;;;21.30;5.32;;;;;;;;;;5016583;28;20050;-65
2022/08/03 06:52:30;;;;;;;22.40;5.57;;;;;;;;;;5021877;28;20132;-65
2022/08/03 06:54:57;;;;;;;24.63;5.65;;;;;;;;;;5016635;28;20076;-65
2022/08/03 06:57:26;;;;;;;21.85;5.82;;;;;;;;;;5025162;28;20507;-64
2022/08/03 06:59:53;;;;;;;30.42;5.57;;;;;;;;;;5020108;28;20100;-65
2022/08/03 07:02:20;;;;;;;24.15;5.32;;;;;;;;;;5021956;28;20117;-65
2022/08/03 07:04:48;;;;;;;27.30;5.65;;;;;;;;;;5022191;28;20057;-65
2022/08/03 07:07:16;;;;;;;21.83;5.50;;;;;;;;;;5023029;28;20061;-65
2022/08/03 07:09:43;;;;;;;32.60;5.30;;;;;;;;;;5007102;28;20057;-66
2022/08/03 07:12:10;;;;;;;23.02;5.75;;;;;;;;;;5020780;28;20049;-65
2022/08/03 07:14:39;;;;;;;24.60;5.13;;;;;;;;;;5022232;28;20060;-65
2022/08/03 07:17:06;;;;;;;22.45;5.35;;;;;;;;;;5022488;28;20057;-65
2022/08/03 07:19:33;;;;;;;23.38;5.32;;;;;;;;;;5021023;28;20046;-65
2022/08/03 07:22:02;;;;;;;28.77;6.10;;;;;;;;;;5009421;28;20069;-65
2022/08/03 07:24:29;;;;;;;21.92;5.40;;;;;;;;;;5022371;28;20679;-65
2022/08/03 07:26:56;;;;;;;21.17;5.25;;;;;;;;;;5020573;28;20054;-65
2022/08/03 07:29:23;;;;;;;21.77;5.00;;;;;;;;;;5017266;28;20401;-65
2022/08/03 07:31:52;;;;;;;20.80;4.93;;;;;;;;;;5024809;28;20045;-65
2022/08/03 07:34:19;;;;;;;23.92;4.90;;;;;;;;;;5018294;28;20042;-65
2022/08/03 07:36:46;;;;;;;22.05;5.45;;;;;;;;;;5002484;28;20118;-65
2022/08/03 07:39:14;;;;;;;27.45;5.47;;;;;;;;;;5014508;28;20053;-64
2022/08/03 07:41:41;;;;;;;20.08;5.28;;;;;;;;;;5019494;28;20761;-65
2022/08/03 07:44:08;;;;;;;19.50;4.80;;;;;;;;;;5004521;28;20061;-65
2022/08/03 07:46:35;;;;;;;27.60;5.60;;;;;;;;;;5019527;28;20053;-64
2022/08/03 07:49:04;;;;;;;22.95;4.90;;;;;;;;;;5023118;28;20056;-65
2022/08/03 07:51:31;;;;;;;26.10;5.55;;;;;;;;;;5001149;28;20057;-65
2022/08/03 07:53:59;;;;;;;22.55;5.93;;;;;;;;;;5022534;28;20069;-65
2022/08/03 07:56:27;;;;;;;24.02;5.50;;;;;;;;;;5012474;28;20050;-65
2022/08/03 07:58:54;;;;;;;20.88;5.93;;;;;;;;;;5020617;28;20046;-65
2022/08/03 08:01:21;;;;;;;22.88;5.68;;;;;;;;;;5025492;28;20069;-65
2022/08/03 08:03:48;;;;;;;23.88;6.00;;;;;;;;;;5024691;28;20107;-65
2022/08/03 08:06:17;;;;;;;21.63;6.05;;;;;;;;;;5018493;28;20544;-65
2022/08/03 08:08:45;;;;;;;20.33;5.78;;;;;;;;;;5021695;28;20053;-65
2022/08/03 08:11:12;;;;;;;28.60;6.22;;;;;;;;;;5022246;28;20377;-65
2022/08/03 08:13:39;;;;;;;20.83;5.70;;;;;;;;;;5026413;28;20050;-65
2022/08/03 08:16:07;;;;;;;25.05;6.80;;;;;;;;;;5018406;28;20057;-65
2022/08/03 08:18:34;;;;;;;21.48;5.65;;;;;;;;;;5022638;28;20056;-65
2022/08/03 08:21:02;;;;;;;23.77;6.15;;;;;;;;;;5013842;28;20429;-65
2022/08/03 08:23:30;;;;;;;31.58;7.45;;;;;;;;;;5022094;28;20049;-65
2022/08/03 08:25:57;;;;;;;16.83;6.53;;;;;;;;;;5023556;28;20061;-65
2022/08/03 08:28:25;;;;;;;30.25;6.95;;;;;;;;;;5022491;28;20053;-65
2022/08/03 08:30:52;;;;;;;22.33;6.35;;;;;;;;;;5027489;28;20057;-65
2022/08/03 08:33:19;;;;;;;23.73;6.20;;;;;;;;;;5023495;28;20085;-65
2022/08/03 08:35:46;;;;;;;26.40;6.85;;;;;;;;;;5025432;28;20053;-65
2022/08/03 08:38:14;;;;;;;22.70;6.30;;;;;;;;;;5008266;28;20124;-64
2022/08/03 08:40:42;;;;;;;25.48;6.57;;;;;;;;;;5020750;28;20645;-65
2022/08/03 08:43:10;;;;;;;20.52;6.68;;;;;;;;;;5017647;28;20045;-65
2022/08/03 08:45:37;;;;;;;23.25;7.18;;;;;;;;;;5020599;28;20089;-65
2022/08/03 08:48:05;;;;;;;28.30;7.18;;;;;;;;;;5016756;28;20425;-65
2022/08/03 08:50:33;;;;;;;31.02;7.57;;;;;;;;;;5004159;28;20344;-65
2022/08/03 08:53:01;;;;;;;23.85;8.15;;;;;;;;;;5017521;28;20060;-65
2022/08/03 08:55:29;;;;;;;26.95;8.52;;;;;;;;;;5024060;28;20061;-65
2022/08/03 08:57:59;;;;;;;25.52;8.68;;;;;;;;;;5017624;28;20065;-65
2022/08/03 09:00:26;;;;;;;22.73;8.20;;;;;;;;;;5018506;28;20115;-65
2022/08/03 09:02:54;;;;;;;29.15;8.25;;;;;;;;;;5021334;28;20408;-65
2022/08/03 09:05:21;;;;;;;23.70;7.43;;;;;;;;;;5026066;28;20057;-65
2022/08/03 09:07:48;;;;;;;24.85;7.55;;;;;;;;;;5004080;28;20133;-65
2022/08/03 09:10:18;;;;;;;25.80;7.13;;;;;;;;;;5003751;28;20058;-65
2022/08/03 09:12:46;;;;;;;29.50;8.23;;;;;;;;;;5020663;28;20045;-65
2022/08/03 09:15:19;;;;;;;26.75;7.47;;;;;;;;;;5019708;28;20053;-65
2022/08/03 09:17:46;;;;;;;27.08;8.20;;;;;;;;;;5011701;28;21033;-65
2022/08/03 09:20:13;;;;;;;23.17;7.88;;;;;;;;;;5023896;28;20520;-65
2022/08/03 09:22:53;;;;;;;28.63;8.48;;;;;;;;;;5015740;28;20077;-65
2022/08/03 09:25:20;;;;;;;30.67;8.40;;;;;;;;;;5015005;28;20053;-65
2022/08/03 09:27:47;;;;;;;24.23;7.20;;;;;;;;;;5022408;28;20113;-65
2022/08/03 09:30:15;;;;;;;23.55;6.95;;;;;;;;;;5017885;28;20050;-65
2022/08/03 09:32:45;;;;;;;23.30;7.05;;;;;;;;;;4998594;28;20140;-65
2022/08/03 09:35:13;;;;;;;27.10;7.70;;;;;;;;;;5018014;28;20053;-65
2022/08/03 09:37:40;;;;;;;24.38;7.45;;;;;;;;;;5021100;28;20085;-65
2022/08/03 09:40:08;;;;;;;30.58;8.18;;;;;;;;;;5004551;28;20053;-66
2022/08/03 09:42:37;;;;;;;25.58;7.38;;;;;;;;;;5025402;28;20064;-65
2022/08/03 09:45:05;;;;;;;26.85;6.70;;;;;;;;;;5021266;28;20424;-66
2022/08/03 09:47:33;;;;;;;23.85;7.15;;;;;;;;;;5012469;28;20056;-65
2022/08/03 09:50:02;;;;;;;24.05;7.30;;;;;;;;;;5018514;28;20051;-65
2022/08/03 09:52:33;;;;;;;24.30;8.00;;;;;;;;;;5018228;28;20041;-65
2022/08/03 09:55:01;;;;;;;24.33;7.75;;;;;;;;;;5000440;28;20119;-65
2022/08/03 09:57:29;;;;;;;24.58;7.22;;;;;;;;;;5021666;28;20045;-65
2022/08/03 10:00:06;;;;;;;27.38;8.27;;;;;;;;;;5003034;28;20092;-66
2022/08/03 10:02:33;;;;;;;23.35;7.65;;;;;;;;;;5023910;28;20128;-65
2022/08/03 10:05:02;;;;;;;22.58;7.28;;;;;;;;;;5025753;28;20119;-65
2022/08/03 10:07:29;;;;;;;24.65;7.30;;;;;;;;;;5013790;28;20057;-65
2022/08/03 10:09:57;;;;;;;29.65;7.65;;;;;;;;;;5017072;28;20061;-65
2022/08/03 10:12:25;;;;;;;29.20;7.70;;;;;;;;;;5020566;28;20054;-66
2022/08/03 10:14:52;;;;;;;23.73;6.50;;;;;;;;;;5020593;28;20060;-65
2022/08/03 10:17:20;;;;;;;28.42;7.55;;;;;;;;;;5016512;28;20061;-65
2022/08/03 10:19:47;;;;;;;22.25;7.28;;;;;;;;;;4996824;28;20068;-65
2022/08/03 10:22:17;;;;;;;27.40;8.00;;;;;;;;;;5000838;28;20065;-65
2022/08/03 10:24:48;;;;;;;30.27;6.75;;;;;;;;;;5018415;28;20049;-65
2022/08/03 10:27:15;;;;;;;23.15;7.32;;;;;;;;;;5018993;28;20038;-65
2022/08/03 10:29:46;;;;;;;24.23;6.50;;;;;;;;;;5018844;28;20049;-65
2022/08/03 10:32:16;;;;;;;36.63;7.53;;;;;;;;;;5024960;28;20080;-66
2022/08/03 10:34:45;;;;;;;23.02;6.43;;;;;;;;;;5019582;28;20069;-66
2022/08/03 10:37:13;;;;;;;23.08;7.28;;;;;;;;;;5024934;28;20049;-65
2022/08/03 10:39:53;;;;;;;28.38;7.38;;;;;;;;;;5025008;28;20800;-65
2022/08/03 10:42:21;;;;;;;30.75;7.60;;;;;;;;;;5026391;28;20121;-66
2022/08/03 10:44:50;;;;;;;23.70;7.40;;;;;;;;;;5022743;28;20404;-65
2022/08/03 10:47:18;;;;;;;24.08;7.90;;;;;;;;;;5006950;28;20100;-65
2022/08/03 10:49:48;;;;;;;27.58;6.75;;;;;;;;;;5018956;28;20045;-65
2022/08/03 10:52:15;;;;;;;36.03;7.80;;;;;;;;;;5023013;28;20052;-66
2022/08/03 10:57:45;;;;;;;24.25;7.00;;;;;;;;;;5022746;28;20536;-66
2022/08/03 11:00:13;;;;;;;24.73;6.82;;;;;;;;;;5025766;28;20497;-65
2022/08/03 11:03:01;;;;;;;23.08;6.82;;;;;;;;;;5024341;28;20481;-65
2022/08/03 11:05:29;;;;;;;20.92;6.38;;;;;;;;;;4999331;28;20052;-65
2022/08/03 11:08:14;;;;;;;30.60;7.45;;;;;;;;;;5026819;28;20070;-65
2022/08/03 11:10:43;;;;;;;20.67;6.55;;;;;;;;;;5026522;28;20057;-66
2022/08/03 11:13:11;;;;;;;24.65;5.80;;;;;;;;;;5018893;28;20046;-65
2022/08/03 11:15:39;;;;;;;28.70;6.75;;;;;;;;;;5023632;28;20251;-65
2022/08/03 11:18:09;;;;;;;27.58;6.10;;;;;;;;;;5003269;28;20085;-66
2022/08/03 11:20:46;;;;;;;28.65;6.55;;;;;;;;;;5018327;28;20420;-65
2022/08/03 11:23:14;;;;;;;28.33;6.05;;;;;;;;;;5025302;28;20049;-65
2022/08/03 11:26:14;;;;;;;28.38;6.40;;;;;;;;;;5024647;28;20056;-65
2022/08/03 11:28:43;;;;;;;23.27;4.85;;;;;;;;;;4926164;29;20059;-65
2022/08/03 11:31:29;;;;;;;24.02;5.55;;;;;;;;;;4927934;29;20051;-65
2022/08/03 11:34:04;;;;;;;28.08;5.63;;;;;;;;;;4964825;28;20489;-65
2022/08/03 11:36:31;;;;;;;21.40;4.68;;;;;;;;;;5026316;28;20053;-65
2022/08/03 11:39:19;;;;;;;28.92;6.28;;;;;;;;;;5025329;28;20053;-66
2022/08/03 11:41:47;;;;;;;20.60;5.38;;;;;;;;;;5014086;28;20065;-65
2022/08/03 11:44:40;;;;;;;21.70;5.50;;;;;;;;;;5022337;28;20057;-66
2022/08/03 11:47:07;;;;;;;;;;;;;;;;;;5003161;28;20058;-66
2022/08/03 11:49:37;;;;;;;23.50;5.63;;;;;;;;;;5022472;28;19968;-65
2022/08/03 11:52:04;;;;;;;19.85;5.45;;;;;;;;;;5025303;28;20045;-65
2022/08/03 11:54:32;;;;;;;24.05;5.30;;;;;;;;;;5021334;28;20061;-65
2022/08/03 11:56:59;;;;;;;22.55;4.50;;;;;;;;;;5022150;28;20053;-65
2022/08/03 11:59:33;;;;;;;27.90;5.60;;;;;;;;;;5023548;28;20054;-66
2022/08/03 12:02:06;;;;;;;20.95;5.68;;;;;;;;;;5024551;28;20130;-66
2022/08/03 12:04:50;;;;;;;28.00;5.30;;;;;;;;;;5009580;28;20053;-65
2022/08/03 12:07:17;;;;;;;22.92;5.20;;;;;;;;;;5017080;28;20089;-65
2022/08/03 12:09:44;;;;;;;20.15;4.80;;;;;;;;;;5014446;28;20108;-66
2022/08/03 12:12:16;;;;;;;20.35;5.00;;;;;;;;;;5023067;28;20058;-66
2022/08/03 12:14:48;;;;;;;17.02;4.40;;;;;;;;;;5025126;28;20049;-65
2022/08/03 12:17:15;;;;;;;23.88;5.10;;;;;;;;;;5019934;28;20058;-66
2022/08/03 12:19:43;;;;;;;23.80;5.65;;;;;;;;;;5005308;28;20056;-65
2022/08/03 12:22:10;;;;;;;21.08;5.28;;;;;;;;;;5021302;28;20049;-66
2022/08/03 12:24:43;;;;;;;19.58;4.97;;;;;;;;;;5017937;28;20054;-66
2022/08/03 12:27:10;;;;;;;21.65;5.05;;;;;;;;;;5021042;28;20049;-66
2022/08/03 12:29:38;;;;;;;18.85;4.97;;;;;;;;;;5018429;28;20945;-66
2022/08/03 12:32:06;;;;;;;20.75;5.38;;;;;;;;;;5014481;28;20053;-66
2022/08/03 12:34:47;;;;;;;22.58;5.13;;;;;;;;;;5014625;28;20081;-66
2022/08/03 12:37:14;;;;;;;28.88;5.70;;;;;;;;;;5002764;28;20054;-67
2022/08/03 12:39:42;;;;;;;22.40;5.03;;;;;;;;;;5020736;28;20061;-65
2022/08/03 12:42:09;;;;;;;21.15;4.68;;;;;;;;;;5021183;28;20050;-65
2022/08/03 12:44:36;;;;;;;23.63;4.90;;;;;;;;;;5016738;28;20618;-66
2022/08/03 12:47:05;;;;;;;24.35;4.97;;;;;;;;;;5020495;28;20049;-66
2022/08/03 12:49:46;;;;;;;15.07;4.47;;;;;;;;;;5004265;28;20569;-66
2022/08/03 12:52:14;;;;;;;16.52;4.90;;;;;;;;;;5020551;28;20053;-66
2022/08/03 12:54:41;;;;;;;28.35;5.32;;;;;;;;;;5024142;28;20777;-66
2022/08/03 12:57:09;;;;;;;20.30;4.68;;;;;;;;;;5024578;28;20053;-67
2022/08/03 12:59:41;;;;;;;19.42;5.15;;;;;;;;;;5020074;28;20690;-66
2022/08/03 13:02:14;;;;;;;19.95;4.50;;;;;;;;;;5025727;28;20057;-66
2022/08/03 13:04:41;;;;;;;18.75;5.47;;;;;;;;;;5018515;28;20050;-66
2022/08/03 13:07:10;;;;;;;20.70;5.20;;;;;;;;;;5023588;28;20065;-66
2022/08/03 13:09:42;;;;;;;18.38;4.68;;;;;;;;;;5024703;28;20049;-66
2022/08/03 13:12:10;;;;;;;18.45;4.50;;;;;;;;;;5018020;28;20093;-66
2022/08/03 13:14:37;;;;;;;18.25;5.45;;;;;;;;;;5019897;28;20057;-66
2022/08/03 13:17:05;;;;;;;22.95;4.80;;;;;;;;;;5017216;28;20053;-66
2022/08/03 13:19:33;;;;;;;17.33;5.05;;;;;;;;;;5022183;28;20091;-66
2022/08/03 13:22:01;;;;;;;19.40;5.15;;;;;;;;;;5025245;28;20049;-65
2022/08/03 13:24:30;;;;;;;20.80;5.35;;;;;;;;;;5022372;28;20080;-66
2022/08/03 13:26:57;;;;;;;20.08;4.82;;;;;;;;;;5019258;28;20059;-66
2022/08/03 13:29:24;;;;;;;21.42;5.00;;;;;;;;;;5011554;28;20509;-66
2022/08/03 13:31:52;;;;;;;22.33;5.28;;;;;;;;;;5024598;28;20077;-66
2022/08/03 13:34:19;;;;;;;25.25;5.57;;;;;;;;;;5024576;28;20053;-66
2022/08/03 13:36:46;;;;;;;25.98;6.38;;;;;;;;;;5022582;28;20049;-66
2022/08/03 13:39:13;;;;;;;20.20;4.80;;;;;;;;;;5014886;28;20054;-66
2022/08/03 13:41:42;;;;;;;19.05;4.95;;;;;;;;;;5022589;28;20049;-66
2022/08/03 13:44:09;;;;;;;21.45;5.03;;;;;;;;;;5017459;28;20057;-65
2022/08/03 13:46:36;;;;;;;18.52;5.00;;;;;;;;;;5019326;28;20103;-66
2022/08/03 13:49:04;;;;;;;19.27;4.75;;;;;;;;;;5016173;28;20068;-65
2022/08/03 13:51:31;;;;;;;21.23;5.32;;;;;;;;;;5019591;28;20048;-65
2022/08/03 13:53:59;;;;;;;26.77;5.40;;;;;;;;;;5021882;28;20503;-65
2022/08/03 13:56:26;;;;;;;21.42;5.00;;;;;;;;;;5022921;28;20095;-66
2022/08/03 13:58:54;;;;;;;19.70;5.22;;;;;;;;;;5020185;28;20061;-66
2022/08/03 14:01:22;;;;;;;20.08;4.70;;;;;;;;;;5019537;28;20047;-66
2022/08/03 14:03:52;;;;;;;19.73;4.70;;;;;;;;;;5005606;28;20050;-66
2022/08/03 14:06:20;;;;;;;18.70;4.85;;;;;;;;;;5031429;28;20041;-66
2022/08/03 14:08:47;;;;;;;18.83;4.85;;;;;;;;;;5007773;28;20181;-66
2022/08/03 14:11:15;;;;;;;18.02;4.90;;;;;;;;;;5024412;28;20509;-66
2022/08/03 14:13:42;;;;;;;15.35;4.40;;;;;;;;;;5028623;28;20095;-66
2022/08/03 14:16:11;;;;;;;17.45;4.72;;;;;;;;;;5021492;28;20056;-66
2022/08/03 14:18:38;;;;;;;17.10;4.45;;;;;;;;;;5022006;28;20042;-66
2022/08/03 14:21:06;;;;;;;14.95;5.10;;;;;;;;;;5031473;28;20532;-65
2022/08/03 14:23:33;;;;;;;13.45;4.40;;;;;;;;;;5023418;28;20052;-66
2022/08/03 14:26:01;;;;;;;20.60;5.00;;;;;;;;;;5027377;28;20053;-66
2022/08/03 14:28:28;;;;;;;19.00;5.15;;;;;;;;;;5028052;28;20063;-66
2022/08/03 14:30:56;;;;;;;16.17;4.55;;;;;;;;;;5009092;28;20057;-66
2022/08/03 14:33:24;;;;;;;18.67;5.47;;;;;;;;;;5024506;28;20408;-66
2022/08/03 14:35:52;;;;;;;16.40;5.13;;;;;;;;;;5031210;28;20049;-66
2022/08/03 14:38:19;;;;;;;15.80;4.57;;;;;;;;;;5027956;28;20050;-66
2022/08/03 14:40:47;;;;;;;17.35;4.90;;;;;;;;;;5023371;28;20049;-66
2022/08/03 14:43:16;;;;;;;20.88;5.13;;;;;;;;;;5029616;28;20489;-66
2022/08/03 14:45:43;;;;;;;18.42;5.32;;;;;;;;;;5031658;28;20354;-66
2022/08/03 14:48:11;;;;;;;15.05;4.70;;;;;;;;;;5027365;28;20068;-66